Cullen — WDF6949 — position and weather

sailwx.info

Track history (hours):
 
Tides and Currents Weather Stations Pressure Air Temp Water Temp Dewpoint Dewpoint Depression Visibility Wind Speed Wind Dir Waves Ship Positions

Cullen

Owner: Kirby Inland Marine LP, Houston, TX. More information available from US FCC via Universal Licensing System and Coast Guard Vessel Documentation Center.

Last reported at 2018-Jul-02 07:49 UTC. Time now 2018-Jul-21 19:34 UTC.
Position N 32°40' W 091°08'.
Warning: this ship's position is 19 days out of date.

Length 110 m; draft 3 m.

Type: . MMSI: 367479530.

Date/timePositionNaut miles runAvg speedWind from/ knotsBaromVisibWave heightAir tempDewpointWater temp
2018-Jul-02 07:49N 32°40' W 091°08'1 4.3
2018-Jul-02 07:29N 32°39' W 091°09'3 5.5
2018-Jul-02 07:01N 32°36' W 091°09'3 5.3
2018-Jul-02 06:28N 32°34' W 091°06'2 5.0
2018-Jul-02 06:00N 32°32' W 091°06'3 5.5
2018-Jul-02 05:31N 32°29' W 091°07'3 5.1
2018-Jul-02 05:01N 32°27' W 091°05'3 5.2
2018-Jul-02 04:30N 32°26' W 091°03'3 5.2
2018-Jul-02 04:00N 32°25' W 090°60'2 4.5
2018-Jul-02 03:30N 32°23' W 091°00'2 4.6
2018-Jul-02 03:01N 32°21' W 090°58'3 5.5
2018-Jul-02 02:31N 32°20' W 090°55'2 4.3
2018-Jul-02 02:00N 32°18' W 090°55'3 5.2
2018-Jul-02 01:31N 32°16' W 090°57'3 5.0
2018-Jul-02 01:01N 32°14' W 090°59'3 5.5
2018-Jul-02 00:30N 32°12' W 090°60'3 5.2
2018-Jul-02 00:01N 32°09' W 091°00'2 4.6
2018-Jul-01 23:30N 32°07' W 091°02'3 5.0
2018-Jul-01 23:01N 32°08' W 091°05'2 3.9
2018-Jul-01 22:31N 32°06' W 091°06'4 6.1
2018-Jul-01 21:54N 32°03' W 091°04'44 5.4
2018-Jul-01 13:43N 31°25' W 091°30'2 5.5
2018-Jul-01 13:22N 31°24' W 091°29'2 5.0
2018-Jul-01 12:54N 31°22' W 091°29'3 6.0
2018-Jul-01 12:24N 31°19' W 091°30'2 6.1
2018-Jul-01 12:00N 31°17' W 091°31'88 2.2
2018-Jun-29 19:05N 29°51' W 091°55'1 7.5
2018-Jun-29 18:55N 29°51' W 091°56'3 7.8
2018-Jun-29 18:30N 29°50' W 091°60'4 8.2
2018-Jun-29 18:00N 29°48' W 092°04'4 8.0
2018-Jun-29 17:30N 29°47' W 092°08'3 6.8
2018-Jun-29 17:01N 29°47' W 092°12'4 7.6
2018-Jun-29 16:30N 29°49' W 092°16'4 7.3
2018-Jun-29 16:00N 29°51' W 092°20'41 3.4
2018-Jun-29 03:52N 29°56' W 093°07'3 6.7
2018-Jun-29 03:29N 29°57' W 093°10'4 7.3
2018-Jun-29 02:59N 29°59' W 093°13'3 6.7
2018-Jun-29 02:30N 30°02' W 093°15'3 6.6
2018-Jun-29 02:00N 30°05' W 093°17'1 2.7
2018-Jun-29 01:28N 30°06' W 093°18'0 0.0
2018-Jun-29 00:58N 30°06' W 093°18'0 0.0
2018-Jun-29 00:28N 30°06' W 093°18'0 0.0
2018-Jun-28 23:58N 30°06' W 093°18'0 0.0
2018-Jun-28 23:28N 30°06' W 093°18'0 0.0
2018-Jun-28 22:58N 30°06' W 093°18'1 2.1
2018-Jun-28 22:30N 30°06' W 093°19'3 4.6
2018-Jun-28 21:56N 30°04' W 093°21'0 0.0
2018-Jun-28 21:29N 30°04' W 093°21'0 0.0
2018-Jun-28 20:59N 30°04' W 093°21'0 0.0
2018-Jun-28 20:29N 30°04' W 093°21'0 0.0
2018-Jun-28 19:59N 30°04' W 093°21'0 0.0
2018-Jun-28 19:29N 30°04' W 093°21'0 0.0
2018-Jun-28 18:59N 30°04' W 093°21'0 0.0
2018-Jun-28 18:29N 30°04' W 093°21'0 0.0
2018-Jun-28 17:59N 30°04' W 093°21'0 0.0
2018-Jun-28 17:29N 30°04' W 093°21'0 0.0
2018-Jun-28 16:59N 30°04' W 093°21'0 0.0
2018-Jun-28 16:29N 30°04' W 093°21'2 4.6
2018-Jun-28 16:01N 30°04' W 093°24'4 7.7
2018-Jun-28 15:30N 30°04' W 093°28'5 8.0
2018-Jun-28 14:57N 30°04' W 093°33'4 8.3
2018-Jun-28 14:29N 30°04' W 093°38'4 8.0
2018-Jun-28 14:00N 30°03' W 093°42'4 7.7
2018-Jun-28 13:31N 30°01' W 093°46'4 8.1
2018-Jun-28 13:01N 29°59' W 093°50'4 7.5
2018-Jun-28 12:30N 29°56' W 093°52'5 9.4
2018-Jun-28 12:00N 29°52' W 093°56'4 7.7
2018-Jun-28 11:30N 29°49' W 093°59'1 1.9
2018-Jun-28 10:59N 29°50' W 093°59'0 0.0
2018-Jun-28 10:29N 29°50' W 093°59'0 0.0
2018-Jun-28 09:59N 29°50' W 093°59'0 0.0
2018-Jun-28 09:29N 29°50' W 093°59'0 0.0
2018-Jun-28 08:59N 29°50' W 093°59'0 0.0
2018-Jun-28 08:28N 29°50' W 093°59'0 0.0
2018-Jun-28 07:58N 29°50' W 093°59'0 0.0
2018-Jun-28 07:28N 29°50' W 093°59'0 0.0
2018-Jun-28 06:58N 29°50' W 093°59'0 0.0
2018-Jun-28 06:28N 29°50' W 093°59'0 0.0
2018-Jun-28 05:58N 29°50' W 093°59'0 0.0
2018-Jun-28 05:28N 29°50' W 093°59'0 0.0
2018-Jun-28 04:58N 29°50' W 093°59'0 0.0
2018-Jun-28 04:28N 29°50' W 093°59'0 0.0
2018-Jun-28 03:58N 29°50' W 093°59'0 0.0
2018-Jun-28 03:28N 29°50' W 093°59'0 0.0
2018-Jun-28 02:58N 29°50' W 093°59'0 0.0
2018-Jun-28 02:28N 29°50' W 093°59'0 0.0
2018-Jun-28 01:58N 29°50' W 093°59'0 0.0
2018-Jun-28 01:28N 29°50' W 093°59'0 0.0
2018-Jun-28 00:58N 29°50' W 093°59'0 0.0
2018-Jun-28 00:28N 29°50' W 093°59'0 0.0
2018-Jun-27 23:58N 29°50' W 093°59'2 4.5
2018-Jun-27 23:31N 29°48' W 094°00'4 8.4
2018-Jun-27 23:00N 29°45' W 094°04'4 8.3
2018-Jun-27 22:31N 29°43' W 094°08'4 7.9
2018-Jun-27 22:00N 29°41' W 094°12'4 8.1
2018-Jun-27 21:29N 29°39' W 094°16'4 8.1
2018-Jun-27 21:00N 29°37' W 094°20'4 7.4
2018-Jun-27 20:29N 29°36' W 094°24'25 5.8
2018-Jun-27 16:10N 29°30' W 094°52'1 8.5
2018-Jun-27 16:00N 29°31' W 094°53'4 8.5
2018-Jun-27 15:30N 29°35' W 094°56'4 8.6
2018-Jun-27 15:00N 29°39' W 094°58'4 7.7
2018-Jun-27 14:27N 29°42' W 095°01'4 6.3
2018-Jun-27 13:49N 29°45' W 095°04'  
Track history (hours):
 
Tides and Currents Weather Stations Pressure Air Temp Water Temp Dewpoint Dewpoint Depression Visibility Wind Speed Wind Dir Waves Ship Positions

Cullen

Owner: Kirby Inland Marine LP, Houston, TX. More information available from US FCC via Universal Licensing System and Coast Guard Vessel Documentation Center.

Last reported at 2018-Jul-02 07:49 UTC. Time now 2018-Jul-21 19:34 UTC.
Position N 32°40' W 091°08'.
Warning: this ship's position is 19 days out of date.

Length 110 m; draft 3 m.

Type: . MMSI: 367479530.

Date/timePositionNaut miles runAvg speedWind from/ knotsBaromVisibWave heightAir tempDewpointWater temp
2018-Jul-02 07:49N 32°40' W 091°08'1 4.3
2018-Jul-02 07:29N 32°39' W 091°09'3 5.5
2018-Jul-02 07:01N 32°36' W 091°09'3 5.3
2018-Jul-02 06:28N 32°34' W 091°06'2 5.0
2018-Jul-02 06:00N 32°32' W 091°06'3 5.5
2018-Jul-02 05:31N 32°29' W 091°07'3 5.1
2018-Jul-02 05:01N 32°27' W 091°05'3 5.2
2018-Jul-02 04:30N 32°26' W 091°03'3 5.2
2018-Jul-02 04:00N 32°25' W 090°60'2 4.5
2018-Jul-02 03:30N 32°23' W 091°00'2 4.6
2018-Jul-02 03:01N 32°21' W 090°58'3 5.5
2018-Jul-02 02:31N 32°20' W 090°55'2 4.3
2018-Jul-02 02:00N 32°18' W 090°55'3 5.2
2018-Jul-02 01:31N 32°16' W 090°57'3 5.0
2018-Jul-02 01:01N 32°14' W 090°59'3 5.5
2018-Jul-02 00:30N 32°12' W 090°60'3 5.2
2018-Jul-02 00:01N 32°09' W 091°00'2 4.6
2018-Jul-01 23:30N 32°07' W 091°02'3 5.0
2018-Jul-01 23:01N 32°08' W 091°05'2 3.9
2018-Jul-01 22:31N 32°06' W 091°06'4 6.1
2018-Jul-01 21:54N 32°03' W 091°04'44 5.4
2018-Jul-01 13:43N 31°25' W 091°30'2 5.5
2018-Jul-01 13:22N 31°24' W 091°29'2 5.0
2018-Jul-01 12:54N 31°22' W 091°29'3 6.0
2018-Jul-01 12:24N 31°19' W 091°30'2 6.1
2018-Jul-01 12:00N 31°17' W 091°31'88 2.2
2018-Jun-29 19:05N 29°51' W 091°55'1 7.5
2018-Jun-29 18:55N 29°51' W 091°56'3 7.8
2018-Jun-29 18:30N 29°50' W 091°60'4 8.2
2018-Jun-29 18:00N 29°48' W 092°04'4 8.0
2018-Jun-29 17:30N 29°47' W 092°08'3 6.8
2018-Jun-29 17:01N 29°47' W 092°12'4 7.6
2018-Jun-29 16:30N 29°49' W 092°16'4 7.3
2018-Jun-29 16:00N 29°51' W 092°20'41 3.4
2018-Jun-29 03:52N 29°56' W 093°07'3 6.7
2018-Jun-29 03:29N 29°57' W 093°10'4 7.3
2018-Jun-29 02:59N 29°59' W 093°13'3 6.7
2018-Jun-29 02:30N 30°02' W 093°15'3 6.6
2018-Jun-29 02:00N 30°05' W 093°17'1 2.7
2018-Jun-29 01:28N 30°06' W 093°18'0 0.0
2018-Jun-29 00:58N 30°06' W 093°18'0 0.0
2018-Jun-29 00:28N 30°06' W 093°18'0 0.0
2018-Jun-28 23:58N 30°06' W 093°18'0 0.0
2018-Jun-28 23:28N 30°06' W 093°18'0 0.0
2018-Jun-28 22:58N 30°06' W 093°18'1 2.1
2018-Jun-28 22:30N 30°06' W 093°19'3 4.6
2018-Jun-28 21:56N 30°04' W 093°21'0 0.0
2018-Jun-28 21:29N 30°04' W 093°21'0 0.0
2018-Jun-28 20:59N 30°04' W 093°21'0 0.0
2018-Jun-28 20:29N 30°04' W 093°21'0 0.0
2018-Jun-28 19:59N 30°04' W 093°21'0 0.0
2018-Jun-28 19:29N 30°04' W 093°21'0 0.0
2018-Jun-28 18:59N 30°04' W 093°21'0 0.0
2018-Jun-28 18:29N 30°04' W 093°21'0 0.0
2018-Jun-28 17:59N 30°04' W 093°21'0 0.0
2018-Jun-28 17:29N 30°04' W 093°21'0 0.0
2018-Jun-28 16:59N 30°04' W 093°21'0 0.0
2018-Jun-28 16:29N 30°04' W 093°21'2 4.6
2018-Jun-28 16:01N 30°04' W 093°24'4 7.7
2018-Jun-28 15:30N 30°04' W 093°28'5 8.0
2018-Jun-28 14:57N 30°04' W 093°33'4 8.3
2018-Jun-28 14:29N 30°04' W 093°38'4 8.0
2018-Jun-28 14:00N 30°03' W 093°42'4 7.7
2018-Jun-28 13:31N 30°01' W 093°46'4 8.1
2018-Jun-28 13:01N 29°59' W 093°50'4 7.5
2018-Jun-28 12:30N 29°56' W 093°52'5 9.4
2018-Jun-28 12:00N 29°52' W 093°56'4 7.7
2018-Jun-28 11:30N 29°49' W 093°59'1 1.9
2018-Jun-28 10:59N 29°50' W 093°59'0 0.0
2018-Jun-28 10:29N 29°50' W 093°59'0 0.0
2018-Jun-28 09:59N 29°50' W 093°59'0 0.0
2018-Jun-28 09:29N 29°50' W 093°59'0 0.0
2018-Jun-28 08:59N 29°50' W 093°59'0 0.0
2018-Jun-28 08:28N 29°50' W 093°59'0 0.0
2018-Jun-28 07:58N 29°50' W 093°59'0 0.0
2018-Jun-28 07:28N 29°50' W 093°59'0 0.0
2018-Jun-28 06:58N 29°50' W 093°59'0 0.0
2018-Jun-28 06:28N 29°50' W 093°59'0 0.0
2018-Jun-28 05:58N 29°50' W 093°59'0 0.0
2018-Jun-28 05:28N 29°50' W 093°59'0 0.0
2018-Jun-28 04:58N 29°50' W 093°59'0 0.0
2018-Jun-28 04:28N 29°50' W 093°59'0 0.0
2018-Jun-28 03:58N 29°50' W 093°59'0 0.0
2018-Jun-28 03:28N 29°50' W 093°59'0 0.0
2018-Jun-28 02:58N 29°50' W 093°59'0 0.0
2018-Jun-28 02:28N 29°50' W 093°59'0 0.0
2018-Jun-28 01:58N 29°50' W 093°59'0 0.0
2018-Jun-28 01:28N 29°50' W 093°59'0 0.0
2018-Jun-28 00:58N 29°50' W 093°59'0 0.0
2018-Jun-28 00:28N 29°50' W 093°59'0 0.0
2018-Jun-27 23:58N 29°50' W 093°59'2 4.5
2018-Jun-27 23:31N 29°48' W 094°00'4 8.4
2018-Jun-27 23:00N 29°45' W 094°04'4 8.3
2018-Jun-27 22:31N 29°43' W 094°08'4 7.9
2018-Jun-27 22:00N 29°41' W 094°12'4 8.1
2018-Jun-27 21:29N 29°39' W 094°16'4 8.1
2018-Jun-27 21:00N 29°37' W 094°20'4 7.4
2018-Jun-27 20:29N 29°36' W 094°24'25 5.8
2018-Jun-27 16:10N 29°30' W 094°52'1 8.5
2018-Jun-27 16:00N 29°31' W 094°53'4 8.5
2018-Jun-27 15:30N 29°35' W 094°56'4 8.6
2018-Jun-27 15:00N 29°39' W 094°58'4 7.7
2018-Jun-27 14:27N 29°42' W 095°01'4 6.3
2018-Jun-27 13:49N 29°45' W 095°04'  

Dump ship's entire track history